createdAt,value
2023-03-21T00:01:54.447Z,11.73
2023-03-21T00:04:23.823Z,11.81
2023-03-21T00:06:51.728Z,11.61
2023-03-21T00:09:19.918Z,11.71
2023-03-21T00:11:48.169Z,11.83
2023-03-21T00:14:18.813Z,11.80
2023-03-21T00:16:50.505Z,11.71
2023-03-21T00:19:19.276Z,11.68
2023-03-21T00:22:08.746Z,11.74
2023-03-21T00:24:37.474Z,12.05
2023-03-21T00:27:34.250Z,11.87
2023-03-21T00:29:53.567Z,11.90
2023-03-21T00:32:23.015Z,11.91
2023-03-21T00:35:11.813Z,11.92
2023-03-21T00:37:41.240Z,12.11
2023-03-21T00:40:23.074Z,12.02
2023-03-21T00:42:53.079Z,12.04
2023-03-21T00:45:22.070Z,12.13
2023-03-21T00:47:50.021Z,12.05
2023-03-21T00:50:18.444Z,12.03
2023-03-21T00:52:47.715Z,12.20
2023-03-21T00:55:16.967Z,12.26
2023-03-21T00:57:47.469Z,12.16
2023-03-21T01:00:19.208Z,12.43
2023-03-21T01:03:02.581Z,12.48
2023-03-21T01:05:52.733Z,12.40
2023-03-21T01:08:29.343Z,12.52
2023-03-21T01:11:04.899Z,12.38
2023-03-21T01:13:34.620Z,12.50
2023-03-21T01:16:07.019Z,12.67
2023-03-21T01:18:36.703Z,12.73
2023-03-21T01:21:08.812Z,12.87
2023-03-21T01:23:38.234Z,12.72
2023-03-21T01:26:06.911Z,12.83
2023-03-21T01:28:37.792Z,12.94
2023-03-21T01:31:07.030Z,12.80
2023-03-21T01:33:35.595Z,12.75
2023-03-21T01:36:12.672Z,12.74
2023-03-21T01:38:42.589Z,12.75
2023-03-21T01:41:21.955Z,12.74
2023-03-21T01:43:49.788Z,12.73
2023-03-21T01:46:47.829Z,12.76
2023-03-21T01:49:26.072Z,12.67
2023-03-21T01:52:01.045Z,12.62
2023-03-21T01:54:37.361Z,12.59
2023-03-21T01:57:09.864Z,12.68
2023-03-21T01:59:41.936Z,12.77
2023-03-21T02:02:14.298Z,12.70
2023-03-21T02:04:50.797Z,12.68
2023-03-21T02:07:25.723Z,12.60
2023-03-21T02:09:56.036Z,12.77
2023-03-21T02:12:23.994Z,12.77
2023-03-21T02:14:54.122Z,12.62
2023-03-21T02:17:30.648Z,12.65
2023-03-21T02:20:37.912Z,12.65
2023-03-21T02:23:51.198Z,12.67
2023-03-21T02:27:04.749Z,12.78
2023-03-21T02:30:05.652Z,12.86
2023-03-21T02:32:56.428Z,12.82
2023-03-21T02:35:39.074Z,12.74
2023-03-21T02:38:15.419Z,12.83
2023-03-21T02:40:51.255Z,12.59
2023-03-21T02:43:28.273Z,12.74
2023-03-21T02:46:02.074Z,12.82
2023-03-21T02:48:49.853Z,12.73
2023-03-21T02:51:21.169Z,12.57
2023-03-21T02:54:21.965Z,12.73
2023-03-21T02:56:43.422Z,12.80
2023-03-21T02:59:11.722Z,12.85
2023-03-21T03:01:39.518Z,12.98
2023-03-21T03:04:19.672Z,12.94
2023-03-21T03:07:04.552Z,12.80
2023-03-21T03:09:45.464Z,12.83
2023-03-21T03:12:21.433Z,12.87
2023-03-21T03:15:03.876Z,12.88
2023-03-21T03:17:50.478Z,12.98
2023-03-21T03:20:31.553Z,13.02
2023-03-21T03:23:10.848Z,12.38
2023-03-21T03:25:46.191Z,12.69
2023-03-21T03:28:16.744Z,12.27
2023-03-21T03:31:00.843Z,12.75
2023-03-21T03:33:37.093Z,12.67
2023-03-21T03:36:07.894Z,12.63
2023-03-21T03:38:39.562Z,12.78
2023-03-21T03:41:14.733Z,12.84
2023-03-21T03:43:50.814Z,12.90
2023-03-21T03:46:24.043Z,12.91
2023-03-21T03:48:56.582Z,12.90
2023-03-21T03:51:28.910Z,12.32
2023-03-21T03:53:59.900Z,12.75
2023-03-21T03:56:30.245Z,12.79
2023-03-21T03:58:58.480Z,12.52
2023-03-21T04:01:26.661Z,12.64
2023-03-21T04:04:06.916Z,12.57
2023-03-21T04:06:39.989Z,12.89
2023-03-21T04:09:19.138Z,12.63
2023-03-21T04:11:49.648Z,12.40
2023-03-21T04:14:17.774Z,12.58
2023-03-21T04:16:45.490Z,12.74
2023-03-21T04:19:13.430Z,12.85
2023-03-21T04:21:41.191Z,12.77
2023-03-21T04:24:09.465Z,12.95
2023-03-21T04:26:37.335Z,12.91
2023-03-21T04:29:06.846Z,13.03
2023-03-21T04:31:36.113Z,12.78
2023-03-21T04:34:09.700Z,12.88
2023-03-21T04:36:42.969Z,12.82
2023-03-21T04:39:13.145Z,13.02
2023-03-21T04:41:41.350Z,12.90
2023-03-21T04:44:11.867Z,13.08
2023-03-21T04:46:40.148Z,13.09
2023-03-21T04:49:08.595Z,13.09
2023-03-21T04:51:37.308Z,13.00
2023-03-21T04:54:05.971Z,12.88
2023-03-21T04:56:35.566Z,12.49
2023-03-21T04:59:07.284Z,12.80
2023-03-21T05:01:36.453Z,12.85
2023-03-21T05:04:05.891Z,12.74
2023-03-21T05:06:34.480Z,12.80
2023-03-21T05:09:05.463Z,12.65
2023-03-21T05:11:36.011Z,12.79
2023-03-21T05:14:04.192Z,12.66
2023-03-21T05:16:31.945Z,12.89
2023-03-21T05:19:04.149Z,12.99
2023-03-21T05:21:34.111Z,12.82
2023-03-21T05:24:03.494Z,13.04
2023-03-21T05:26:31.352Z,13.03
2023-03-21T05:28:59.089Z,12.80
2023-03-21T05:31:26.843Z,13.11
2023-03-21T05:33:54.557Z,13.04
2023-03-21T05:36:23.694Z,12.95
2023-03-21T05:38:51.442Z,13.00
2023-03-21T05:41:21.290Z,12.98
2023-03-21T05:43:49.058Z,12.83
2023-03-21T05:46:16.903Z,12.82
2023-03-21T05:48:44.640Z,13.06
2023-03-21T05:51:12.385Z,13.05
2023-03-21T05:53:41.459Z,13.15
2023-03-21T05:56:10.376Z,13.10
2023-03-21T05:58:38.120Z,12.90
2023-03-21T06:01:06.408Z,13.19
2023-03-21T06:03:34.212Z,13.30
2023-03-21T06:06:03.454Z,13.37
2023-03-21T06:08:31.771Z,13.28
2023-03-21T06:11:00.884Z,13.17
2023-03-21T06:13:28.839Z,13.39
2023-03-21T06:15:56.940Z,13.42
2023-03-21T06:18:24.689Z,13.29
2023-03-21T06:20:52.424Z,13.04
2023-03-21T06:23:20.197Z,13.13
2023-03-21T06:25:49.327Z,13.17
2023-03-21T06:28:18.559Z,12.79
2023-03-21T06:30:46.310Z,13.20
2023-03-21T06:33:14.040Z,13.32
2023-03-21T06:35:41.807Z,13.25
2023-03-21T06:38:09.590Z,13.23
2023-03-21T06:40:38.975Z,13.28
2023-03-21T06:43:06.689Z,13.42
2023-03-21T06:45:36.334Z,13.36
2023-03-21T06:48:04.328Z,13.67
2023-03-21T06:50:32.086Z,12.77
2023-03-21T06:52:59.813Z,13.25
2023-03-21T06:55:28.924Z,13.31
2023-03-21T06:57:58.347Z,13.49
2023-03-21T07:00:26.643Z,13.46
2023-03-21T07:02:55.759Z,13.41
2023-03-21T07:05:23.539Z,13.23
2023-03-21T07:07:51.237Z,13.28
2023-03-21T07:10:19.004Z,13.63
2023-03-21T07:12:46.742Z,13.33
2023-03-21T07:15:14.469Z,13.77
2023-03-21T07:17:42.177Z,14.08
2023-03-21T07:20:13.357Z,14.09
2023-03-21T07:22:41.374Z,14.15
2023-03-21T07:25:10.719Z,14.07
2023-03-21T07:27:40.942Z,14.18
2023-03-21T07:30:11.056Z,14.25
2023-03-21T07:32:39.689Z,14.31
2023-03-21T07:35:09.126Z,14.31
2023-03-21T07:37:38.492Z,14.19
2023-03-21T07:40:10.429Z,14.17
2023-03-21T07:42:38.285Z,14.27
2023-03-21T07:45:07.877Z,14.13
2023-03-21T07:47:36.587Z,14.01
2023-03-21T07:50:05.442Z,13.99
2023-03-21T07:52:33.951Z,14.24
2023-03-21T07:55:03.031Z,14.44
2023-03-21T07:57:30.764Z,14.35
2023-03-21T07:59:58.493Z,14.30
2023-03-21T08:02:26.604Z,14.71
2023-03-21T08:04:54.415Z,14.61
2023-03-21T08:07:22.332Z,14.96
2023-03-21T08:09:50.071Z,15.14
2023-03-21T08:12:19.187Z,15.23
2023-03-21T08:14:46.920Z,14.81
2023-03-21T08:17:14.623Z,14.71
2023-03-21T08:19:42.343Z,14.78
2023-03-21T08:22:10.941Z,14.78
2023-03-21T08:24:38.725Z,14.92
2023-03-21T08:27:06.526Z,14.57
2023-03-21T08:29:40.437Z,14.39
2023-03-21T08:32:08.229Z,14.55
2023-03-21T08:34:36.487Z,14.72
2023-03-21T08:37:04.371Z,14.62
2023-03-21T08:39:32.217Z,14.34
2023-03-21T08:41:59.952Z,14.58
2023-03-21T08:44:27.706Z,14.48
2023-03-21T08:46:56.748Z,14.57
2023-03-21T08:49:24.495Z,14.16
2023-03-21T08:51:56.841Z,14.43
2023-03-21T08:54:24.937Z,14.70
2023-03-21T08:56:52.844Z,15.45
2023-03-21T08:59:20.818Z,14.99
2023-03-21T09:01:48.702Z,14.99
2023-03-21T09:04:18.921Z,15.49
2023-03-21T09:06:48.851Z,16.06
2023-03-21T09:09:16.944Z,15.80
2023-03-21T09:11:44.815Z,15.40
2023-03-21T09:14:12.906Z,15.87
2023-03-21T09:16:41.257Z,15.91
2023-03-21T09:19:09.702Z,15.75
2023-03-21T09:21:39.210Z,16.01
2023-03-21T09:24:07.463Z,16.30
2023-03-21T09:26:35.585Z,15.85
2023-03-21T09:29:04.950Z,16.08
2023-03-21T09:31:32.908Z,15.98
2023-03-21T09:34:01.068Z,15.75
2023-03-21T09:36:32.482Z,15.43
2023-03-21T09:39:03.928Z,15.30
2023-03-21T09:41:58.626Z,15.82
2023-03-21T09:44:37.531Z,15.62
2023-03-21T09:47:20.680Z,15.31
2023-03-21T09:49:56.632Z,15.22
2023-03-21T09:52:32.367Z,15.20
2023-03-21T09:55:01.342Z,15.30
2023-03-21T09:57:35.265Z,15.36
2023-03-21T10:00:15.914Z,14.35
2023-03-21T10:02:47.115Z,14.09
2023-03-21T10:05:19.574Z,14.77
2023-03-21T10:07:52.576Z,14.86
2023-03-21T10:10:27.292Z,15.01
2023-03-21T10:12:56.418Z,14.99
2023-03-21T10:15:26.744Z,14.69
2023-03-21T10:18:01.335Z,15.23
2023-03-21T10:20:32.588Z,15.44
2023-03-21T10:23:04.675Z,15.93
2023-03-21T10:25:36.599Z,16.48
2023-03-21T10:28:07.390Z,15.69
2023-03-21T10:30:40.971Z,16.18
2023-03-21T10:33:16.826Z,16.30
2023-03-21T10:35:47.869Z,16.06
2023-03-21T10:38:18.962Z,16.16
2023-03-21T10:40:48.055Z,16.49
2023-03-21T10:43:37.466Z,16.10
2023-03-21T10:46:12.380Z,17.36
2023-03-21T10:48:46.004Z,17.84
2023-03-21T10:51:20.248Z,17.55
2023-03-21T10:53:52.401Z,17.16
2023-03-21T10:56:27.743Z,17.38
2023-03-21T10:58:59.698Z,17.16
2023-03-21T11:01:31.249Z,16.99
2023-03-21T11:04:02.011Z,17.06
2023-03-21T11:06:31.950Z,17.49
2023-03-21T11:09:05.593Z,17.52
2023-03-21T11:11:39.928Z,17.16
2023-03-21T11:14:09.609Z,17.12
2023-03-21T11:16:41.157Z,17.33
2023-03-21T11:19:17.087Z,17.42
2023-03-21T11:21:45.425Z,17.69
2023-03-21T11:24:16.219Z,18.11
2023-03-21T11:26:48.062Z,18.17
2023-03-21T11:29:27.811Z,18.74
2023-03-21T11:32:01.987Z,17.86
2023-03-21T11:34:35.041Z,18.36
2023-03-21T11:37:03.893Z,17.78
2023-03-21T11:39:34.390Z,17.75
2023-03-21T11:42:03.664Z,17.41
2023-03-21T11:44:34.568Z,18.49
2023-03-21T11:47:02.872Z,18.66
2023-03-21T11:49:31.790Z,19.21
2023-03-21T11:52:13.563Z,18.52
2023-03-21T11:54:58.973Z,18.39
2023-03-21T11:57:37.818Z,19.45
2023-03-21T12:00:16.450Z,18.59
2023-03-21T12:03:28.858Z,18.33
2023-03-21T12:06:03.245Z,18.14
2023-03-21T12:08:41.513Z,18.15
2023-03-21T12:11:16.587Z,18.33
2023-03-21T12:14:00.338Z,17.77
2023-03-21T12:16:53.438Z,17.37
2023-03-21T12:19:48.980Z,17.29
2023-03-21T12:22:28.986Z,16.87
2023-03-21T12:24:58.753Z,16.42
2023-03-21T12:27:39.187Z,17.18
2023-03-21T12:30:23.637Z,17.36
2023-03-21T12:33:02.833Z,17.30
2023-03-21T12:35:46.431Z,17.03
2023-03-21T12:38:17.818Z,17.18
2023-03-21T12:41:02.658Z,17.18
2023-03-21T12:43:40.421Z,17.91
2023-03-21T12:46:17.041Z,18.64
2023-03-21T12:48:48.556Z,18.21
2023-03-21T12:51:20.285Z,18.14
2023-03-21T12:53:56.744Z,18.73
2023-03-21T12:56:29.124Z,18.04
2023-03-21T12:59:02.012Z,17.86
2023-03-21T13:01:31.848Z,17.83
2023-03-21T13:04:20.224Z,18.44
2023-03-21T13:06:50.006Z,18.75
2023-03-21T13:09:36.831Z,18.68
2023-03-21T13:12:17.073Z,18.49
2023-03-21T13:14:53.333Z,19.08
2023-03-21T13:17:28.204Z,18.27
2023-03-21T13:20:08.133Z,18.26
2023-03-21T13:22:36.050Z,18.58
2023-03-21T13:25:07.565Z,18.14
2023-03-21T13:27:37.243Z,18.15
2023-03-21T13:30:07.481Z,18.20
2023-03-21T13:32:39.185Z,18.69
2023-03-21T13:35:16.593Z,18.91
2023-03-21T13:37:51.777Z,18.67
2023-03-21T13:40:26.022Z,18.98
2023-03-21T13:42:57.012Z,19.49
2023-03-21T13:45:29.257Z,19.06
2023-03-21T13:48:00.593Z,18.51
2023-03-21T13:50:50.733Z,18.65
2023-03-21T13:53:33.908Z,18.37
2023-03-21T13:56:09.243Z,18.42
2023-03-21T13:58:40.058Z,18.16
2023-03-21T14:01:23.743Z,18.00
2023-03-21T14:04:00.004Z,18.12
2023-03-21T14:06:35.098Z,18.37
2023-03-21T14:09:04.064Z,18.13
2023-03-21T14:11:33.611Z,18.06
2023-03-21T14:14:03.397Z,17.91
2023-03-21T14:16:32.489Z,17.55
2023-03-21T14:19:04.884Z,17.18
2023-03-21T14:21:35.865Z,17.48
2023-03-21T14:24:05.962Z,17.52
2023-03-21T14:26:35.911Z,18.11
2023-03-21T14:29:09.628Z,17.37
2023-03-21T14:31:43.396Z,17.16
2023-03-21T14:34:12.655Z,17.54
2023-03-21T14:36:45.736Z,18.38
2023-03-21T14:39:19.156Z,17.19
2023-03-21T14:41:50.038Z,17.19
2023-03-21T14:44:26.116Z,17.20
2023-03-21T14:46:55.631Z,17.44
2023-03-21T14:49:27.736Z,17.00
2023-03-21T14:51:57.869Z,17.52
2023-03-21T14:54:28.151Z,17.24
2023-03-21T14:57:01.346Z,17.38
2023-03-21T14:59:33.114Z,17.34
2023-03-21T15:02:04.060Z,17.05
2023-03-21T15:04:33.964Z,17.10
2023-03-21T15:07:05.264Z,17.68
2023-03-21T15:09:35.748Z,17.78
2023-03-21T15:12:09.644Z,18.20
2023-03-21T15:14:39.036Z,17.56
2023-03-21T15:17:09.158Z,18.19
2023-03-21T15:19:40.406Z,18.54
2023-03-21T15:22:15.860Z,17.99
2023-03-21T15:24:48.212Z,17.81
2023-03-21T15:27:19.836Z,18.67
2023-03-21T15:29:51.022Z,18.06
2023-03-21T15:32:22.716Z,17.62
2023-03-21T15:34:54.719Z,18.34
2023-03-21T15:37:24.774Z,18.72
2023-03-21T15:40:09.401Z,18.81
2023-03-21T15:42:40.426Z,18.19
2023-03-21T15:45:18.432Z,17.74
2023-03-21T15:47:53.487Z,18.09
2023-03-21T15:50:33.913Z,17.79
2023-03-21T15:53:03.880Z,18.03
2023-03-21T15:55:36.242Z,17.83
2023-03-21T15:58:07.634Z,17.35
2023-03-21T16:00:41.168Z,16.68
2023-03-21T16:03:18.143Z,17.21
2023-03-21T16:06:08.841Z,18.25
2023-03-21T16:08:40.450Z,17.87
2023-03-21T16:11:15.061Z,17.08
2023-03-21T16:13:42.789Z,17.32
2023-03-21T16:16:17.583Z,17.45
2023-03-21T16:18:45.406Z,17.53
2023-03-21T16:21:16.534Z,17.28
2023-03-21T16:23:44.262Z,17.22
2023-03-21T16:26:14.664Z,17.87
2023-03-21T16:28:42.375Z,18.16
2023-03-21T16:31:14.780Z,17.46
2023-03-21T16:33:42.664Z,17.43
2023-03-21T16:36:17.805Z,17.32
2023-03-21T16:38:46.019Z,17.61
2023-03-21T16:41:14.809Z,17.63
2023-03-21T16:43:43.902Z,17.71
2023-03-21T16:46:14.860Z,17.13
2023-03-21T16:48:43.313Z,16.91
2023-03-21T16:51:16.069Z,16.65
2023-03-21T16:53:44.315Z,16.28
2023-03-21T16:56:16.130Z,17.29
2023-03-21T16:58:44.437Z,16.65
2023-03-21T17:01:15.502Z,16.77
2023-03-21T17:03:43.885Z,16.75
2023-03-21T17:06:17.078Z,16.43
2023-03-21T17:08:45.233Z,16.50
2023-03-21T17:11:16.401Z,16.37
2023-03-21T17:13:44.701Z,16.53
2023-03-21T17:16:13.511Z,16.38
2023-03-21T17:18:41.532Z,16.67
2023-03-21T17:21:14.731Z,16.69
2023-03-21T17:23:44.534Z,16.54
2023-03-21T17:26:14.466Z,16.41
2023-03-21T17:28:42.626Z,16.57
2023-03-21T17:31:15.034Z,16.38
2023-03-21T17:33:43.221Z,16.28
2023-03-21T17:36:15.643Z,16.13
2023-03-21T17:38:45.855Z,15.81
2023-03-21T17:41:15.306Z,15.73
2023-03-21T17:43:43.051Z,15.74
2023-03-21T17:46:14.393Z,15.64
2023-03-21T17:48:42.610Z,15.42
2023-03-21T17:51:12.746Z,15.32
2023-03-21T17:53:40.556Z,15.47
2023-03-21T17:56:13.823Z,15.70
2023-03-21T17:58:41.537Z,15.63
2023-03-21T18:01:09.424Z,15.79
2023-03-21T18:03:37.102Z,15.69
2023-03-21T18:06:05.905Z,15.57
2023-03-21T18:08:34.126Z,15.90
2023-03-21T18:11:01.867Z,15.89
2023-03-21T18:13:31.195Z,15.87
2023-03-21T18:15:59.825Z,14.76
2023-03-21T18:18:28.246Z,14.81
2023-03-21T18:20:58.456Z,14.67
2023-03-21T18:23:26.647Z,14.87
2023-03-21T18:25:54.412Z,15.16
2023-03-21T18:28:22.594Z,15.01
2023-03-21T18:31:08.283Z,14.78
2023-03-21T18:33:40.305Z,14.84
2023-03-21T18:36:08.955Z,14.96
2023-03-21T18:38:37.445Z,14.91
2023-03-21T18:41:05.549Z,14.44
2023-03-21T18:46:22.969Z,14.88
2023-03-21T18:48:51.802Z,14.80
2023-03-21T18:51:20.005Z,14.90
2023-03-21T18:53:47.774Z,14.84
2023-03-21T18:56:56.194Z,14.53
2023-03-21T18:59:03.676Z,14.61
2023-03-21T19:01:33.498Z,14.24
2023-03-21T19:04:23.803Z,14.69
2023-03-21T19:06:50.286Z,14.69
2023-03-21T19:09:18.711Z,14.68
2023-03-21T19:11:47.205Z,14.83
2023-03-21T19:14:17.125Z,14.46
2023-03-21T19:17:34.563Z,14.05
2023-03-21T19:19:34.658Z,14.16
2023-03-21T19:22:02.431Z,14.55
2023-03-21T19:24:30.127Z,14.35
2023-03-21T19:26:57.976Z,14.40
2023-03-21T19:29:26.128Z,14.64
2023-03-21T19:31:55.350Z,14.63
2023-03-21T19:34:23.146Z,14.36
2023-03-21T19:36:52.312Z,14.30
2023-03-21T19:39:22.405Z,14.33
2023-03-21T19:41:50.668Z,14.07
2023-03-21T19:44:19.139Z,14.04
2023-03-21T19:46:48.396Z,13.76
2023-03-21T19:49:22.234Z,14.00
2023-03-21T19:51:51.384Z,13.97
2023-03-21T19:54:19.251Z,14.14
2023-03-21T19:56:48.275Z,13.98
2023-03-21T19:59:17.245Z,13.91
2023-03-21T20:01:46.005Z,13.92
2023-03-21T20:04:14.826Z,13.76
2023-03-21T20:06:44.074Z,13.78
2023-03-21T20:12:01.408Z,13.70
2023-03-21T20:14:29.212Z,13.99
2023-03-21T20:16:57.319Z,13.82
2023-03-21T20:19:25.791Z,13.68
2023-03-21T20:21:59.823Z,13.69
2023-03-21T20:24:29.983Z,13.71
2023-03-21T20:26:57.710Z,13.86
2023-03-21T20:32:13.169Z,13.73
2023-03-21T20:34:40.984Z,13.59
2023-03-21T20:37:11.396Z,13.77
2023-03-21T20:39:39.267Z,13.83
2023-03-21T20:42:07.110Z,13.51
2023-03-21T20:44:55.904Z,13.51
2023-03-21T20:47:23.659Z,13.62
2023-03-21T20:49:51.422Z,13.54
2023-03-21T20:55:09.279Z,13.42
2023-03-21T20:57:38.752Z,13.54
2023-03-21T21:00:13.704Z,13.39
2023-03-21T21:02:42.592Z,13.60
2023-03-21T21:05:25.389Z,13.30
2023-03-21T21:07:56.778Z,13.61
2023-03-21T21:10:25.943Z,13.74
2023-03-21T21:12:53.863Z,13.81
2023-03-21T21:15:22.073Z,13.85
2023-03-21T21:18:05.361Z,13.90
2023-03-21T21:20:33.787Z,13.83
2023-03-21T21:23:03.026Z,14.01
2023-03-21T21:25:33.467Z,13.07
2023-03-21T21:28:02.311Z,13.64
2023-03-21T21:30:30.368Z,13.96
2023-03-21T21:32:59.583Z,13.98
2023-03-21T21:35:27.597Z,13.89
2023-03-21T21:37:55.399Z,13.96
2023-03-21T21:40:25.596Z,13.67
2023-03-21T21:42:53.609Z,13.65
2023-03-21T21:45:21.615Z,14.05
2023-03-21T21:47:49.583Z,14.00
2023-03-21T21:50:17.467Z,14.16
2023-03-21T21:52:52.510Z,13.95
2023-03-21T21:55:20.463Z,13.60
2023-03-21T21:57:51.044Z,14.11
2023-03-21T22:00:20.322Z,14.25
2023-03-21T22:02:48.274Z,13.58
2023-03-21T22:05:16.258Z,13.59
2023-03-21T22:07:44.424Z,13.73
2023-03-21T22:10:12.273Z,13.74
2023-03-21T22:12:39.980Z,13.68
2023-03-21T22:15:10.754Z,13.94
2023-03-21T22:17:39.793Z,13.71
2023-03-21T22:20:09.731Z,13.70
2023-03-21T22:22:38.428Z,13.93
2023-03-21T22:25:08.310Z,13.59
2023-03-21T22:27:36.350Z,13.80
2023-03-21T22:30:05.396Z,13.90
2023-03-21T22:32:35.268Z,13.88
2023-03-21T22:35:03.370Z,13.70
2023-03-21T22:37:31.351Z,13.92
2023-03-21T22:39:59.092Z,13.62
2023-03-21T22:42:27.276Z,13.72
2023-03-21T22:44:55.043Z,13.68
2023-03-21T22:47:22.818Z,13.58
2023-03-21T22:49:52.230Z,14.02
2023-03-21T22:52:19.975Z,13.82
2023-03-21T22:54:49.131Z,14.14
2023-03-21T22:57:17.716Z,14.17
2023-03-21T22:59:45.479Z,14.01
2023-03-21T23:02:13.442Z,13.82
2023-03-21T23:04:41.561Z,14.20
2023-03-21T23:07:10.866Z,13.90
2023-03-21T23:09:38.787Z,14.06
2023-03-21T23:12:06.996Z,13.47
2023-03-21T23:14:34.830Z,13.84
2023-03-21T23:17:02.681Z,14.12
2023-03-21T23:19:31.251Z,14.07
2023-03-21T23:21:59.170Z,14.01
2023-03-21T23:24:28.282Z,13.75
2023-03-21T23:26:55.993Z,13.91
2023-03-21T23:29:23.700Z,13.76
2023-03-21T23:31:51.393Z,13.71
2023-03-21T23:34:19.534Z,13.34
2023-03-21T23:36:47.463Z,13.61
2023-03-21T23:39:16.488Z,13.21
2023-03-21T23:41:45.631Z,13.36
2023-03-21T23:44:13.380Z,13.69
2023-03-21T23:46:41.083Z,12.85
2023-03-21T23:49:08.872Z,13.49
2023-03-21T23:51:36.577Z,13.33
2023-03-21T23:54:04.471Z,13.69
2023-03-21T23:56:32.394Z,13.52
2023-03-21T23:59:01.860Z,13.62
